Agios Nikolaos — SW2035 — position and weather

sailwx.info

Track history (hours):
 
Tides and Currents Weather Stations Pressure Air Temp Water Temp Dewpoint Dewpoint Depression Visibility Wind Speed Wind Dir Waves Ship Positions

Agios Nikolaos

Last reported at 2017-Sep-27 04:49 UTC. Time now 2017-Oct-20 05:29 UTC.
Position N 37°45' E 023°08'.
Warning: this ship's position is 23 days out of date.

Length 16 m; draft 1.6 m.

Type: Fishing. MMSI: 237554000.

Date/timePositionNaut miles runAvg speedWind from/ knotsBaromVisibWave heightAir tempDewpointWater temp
2017-Sep-27 04:49N 37°45' E 023°08'0 0.0
2017-Sep-26 15:37N 37°46' E 023°08'0 0.0
2017-Sep-26 15:16N 37°46' E 023°08'0 0.0
2017-Sep-26 14:53N 37°46' E 023°08'0 0.0
2017-Sep-26 14:25N 37°46' E 023°08'0 0.0
2017-Sep-26 13:57N 37°46' E 023°08'0 0.0
2017-Sep-26 13:25N 37°46' E 023°08'5 0.9
2017-Sep-26 07:42N 37°44' E 023°14'0 1.1
2017-Sep-26 07:29N 37°44' E 023°14'0 1.0
2017-Sep-26 07:00N 37°45' E 023°14'1 1.1
2017-Sep-26 06:30N 37°45' E 023°14'1 0.9
2017-Sep-26 05:57N 37°46' E 023°14'3 6.0
2017-Sep-26 05:29N 37°45' E 023°10'2 0.1
2017-Sep-25 11:14N 37°46' E 023°08'1 0.2
2017-Sep-25 04:27N 37°45' E 023°09'1 1.0
2017-Sep-25 03:10N 37°46' E 023°08'0 0.1
2017-Sep-25 02:55N 37°46' E 023°08'0 0.0
2017-Sep-25 02:26N 37°46' E 023°08'0 0.0
2017-Sep-25 01:33N 37°46' E 023°08'0 0.1
2017-Sep-25 01:30N 37°46' E 023°08'0 0.0
2017-Sep-24 20:11N 37°46' E 023°08'0 0.0
2017-Sep-24 15:02N 37°46' E 023°08'0 0.0
2017-Sep-24 15:00N 37°46' E 023°08'0 0.0
2017-Sep-24 14:30N 37°46' E 023°08'0 0.0
2017-Sep-24 14:00N 37°46' E 023°08'0 0.1
2017-Sep-24 12:34N 37°46' E 023°08'1 5.7
2017-Sep-24 12:28N 37°45' E 023°08'3 6.6
2017-Sep-24 11:59N 37°48' E 023°11'3 5.2
2017-Sep-24 11:29N 37°46' E 023°13'2 3.5
2017-Sep-24 10:56N 37°44' E 023°14'1 3.0
2017-Sep-24 10:30N 37°43' E 023°14'6 1.0
2017-Sep-24 04:19N 37°46' E 023°08'0 0.0
2017-Sep-24 03:58N 37°46' E 023°08'0 0.0
2017-Sep-24 02:22N 37°46' E 023°08'0 0.0
2017-Sep-24 01:58N 37°46' E 023°08'0 0.0
2017-Sep-24 01:30N 37°46' E 023°08'0 0.0
2017-Sep-24 00:51N 37°46' E 023°08'0 0.0
2017-Sep-24 00:30N 37°46' E 023°08'0 0.0
2017-Sep-23 23:57N 37°46' E 023°08'0 0.0
2017-Sep-23 23:18N 37°46' E 023°08'0 0.0
2017-Sep-23 22:58N 37°46' E 023°08'0 0.0
2017-Sep-23 22:29N 37°46' E 023°08'0 0.0
2017-Sep-23 20:39N 37°46' E 023°08'0 0.0
2017-Sep-23 20:30N 37°46' E 023°08'0 0.0
2017-Sep-23 19:58N 37°46' E 023°08'  
Track history (hours):
 
Tides and Currents Weather Stations Pressure Air Temp Water Temp Dewpoint Dewpoint Depression Visibility Wind Speed Wind Dir Waves Ship Positions

Agios Nikolaos

Last reported at 2017-Sep-27 04:49 UTC. Time now 2017-Oct-20 05:29 UTC.
Position N 37°45' E 023°08'.
Warning: this ship's position is 23 days out of date.

Length 16 m; draft 1.6 m.

Type: Fishing. MMSI: 237554000.

Date/timePositionNaut miles runAvg speedWind from/ knotsBaromVisibWave heightAir tempDewpointWater temp
2017-Sep-27 04:49N 37°45' E 023°08'0 0.0
2017-Sep-26 15:37N 37°46' E 023°08'0 0.0
2017-Sep-26 15:16N 37°46' E 023°08'0 0.0
2017-Sep-26 14:53N 37°46' E 023°08'0 0.0
2017-Sep-26 14:25N 37°46' E 023°08'0 0.0
2017-Sep-26 13:57N 37°46' E 023°08'0 0.0
2017-Sep-26 13:25N 37°46' E 023°08'5 0.9
2017-Sep-26 07:42N 37°44' E 023°14'0 1.1
2017-Sep-26 07:29N 37°44' E 023°14'0 1.0
2017-Sep-26 07:00N 37°45' E 023°14'1 1.1
2017-Sep-26 06:30N 37°45' E 023°14'1 0.9
2017-Sep-26 05:57N 37°46' E 023°14'3 6.0
2017-Sep-26 05:29N 37°45' E 023°10'2 0.1
2017-Sep-25 11:14N 37°46' E 023°08'1 0.2
2017-Sep-25 04:27N 37°45' E 023°09'1 1.0
2017-Sep-25 03:10N 37°46' E 023°08'0 0.1
2017-Sep-25 02:55N 37°46' E 023°08'0 0.0
2017-Sep-25 02:26N 37°46' E 023°08'0 0.0
2017-Sep-25 01:33N 37°46' E 023°08'0 0.1
2017-Sep-25 01:30N 37°46' E 023°08'0 0.0
2017-Sep-24 20:11N 37°46' E 023°08'0 0.0
2017-Sep-24 15:02N 37°46' E 023°08'0 0.0
2017-Sep-24 15:00N 37°46' E 023°08'0 0.0
2017-Sep-24 14:30N 37°46' E 023°08'0 0.0
2017-Sep-24 14:00N 37°46' E 023°08'0 0.1
2017-Sep-24 12:34N 37°46' E 023°08'1 5.7
2017-Sep-24 12:28N 37°45' E 023°08'3 6.6
2017-Sep-24 11:59N 37°48' E 023°11'3 5.2
2017-Sep-24 11:29N 37°46' E 023°13'2 3.5
2017-Sep-24 10:56N 37°44' E 023°14'1 3.0
2017-Sep-24 10:30N 37°43' E 023°14'6 1.0
2017-Sep-24 04:19N 37°46' E 023°08'0 0.0
2017-Sep-24 03:58N 37°46' E 023°08'0 0.0
2017-Sep-24 02:22N 37°46' E 023°08'0 0.0
2017-Sep-24 01:58N 37°46' E 023°08'0 0.0
2017-Sep-24 01:30N 37°46' E 023°08'0 0.0
2017-Sep-24 00:51N 37°46' E 023°08'0 0.0
2017-Sep-24 00:30N 37°46' E 023°08'0 0.0
2017-Sep-23 23:57N 37°46' E 023°08'0 0.0
2017-Sep-23 23:18N 37°46' E 023°08'0 0.0
2017-Sep-23 22:58N 37°46' E 023°08'0 0.0
2017-Sep-23 22:29N 37°46' E 023°08'0 0.0
2017-Sep-23 20:39N 37°46' E 023°08'0 0.0
2017-Sep-23 20:30N 37°46' E 023°08'0 0.0
2017-Sep-23 19:58N 37°46' E 023°08'  

Dump ship's entire track history